Time;durP1;ratioP1;P1;durP2;ratioP2;P2;SDS_P1;SDS_P2;PMS_P1;PMS_P2;Temp;Humidity;BMP_temperature;BMP_pressure;BME280_temperature;BME280_humidity;BME280_pressure;Samples;Min_cycle;Max_cycle;Signal;HPM_P1;HPM_P2
2021/04/06 00:02:15;;;;;;;14.90;1.70;;;0.30;99.90;;;;;;3557934;40;20034;-70
2021/04/06 00:04:46;;;;;;;8.88;1.85;;;0.20;99.90;;;;;;3560712;40;20092;-70
2021/04/06 00:07:16;;;;;;;7.68;1.23;;;0.20;99.90;;;;;;3558999;40;20034;-70
2021/04/06 00:09:44;;;;;;;12.18;2.03;;;0.20;99.90;;;;;;3556020;40;20056;-70
2021/04/06 00:12:14;;;;;;;9.40;1.50;;;0.20;99.90;;;;;;3555845;40;20576;-70
2021/04/06 00:14:40;;;;;;;6.95;1.45;;;0.10;99.90;;;;;;3560869;40;20093;-70
2021/04/06 00:17:09;;;;;;;8.25;1.63;;;0.10;99.90;;;;;;3564620;40;20065;-70
2021/04/06 00:19:39;;;;;;;8.77;1.27;;;0.00;99.90;;;;;;3558299;40;20415;-70
2021/04/06 00:22:06;;;;;;;7.80;1.40;;;0.00;99.90;;;;;;3561357;40;20097;-70
2021/04/06 00:24:36;;;;;;;7.45;1.70;;;0.00;99.90;;;;;;3564758;40;20523;-71
2021/04/06 00:27:21;;;;;;;6.53;1.83;;;0.00;99.90;;;;;;3566908;40;20033;-71
2021/04/06 00:29:55;;;;;;;10.13;1.77;;;0.00;99.90;;;;;;3560215;40;20138;-71
2021/04/06 00:32:22;;;;;;;7.10;1.60;;;0.00;99.90;;;;;;3565017;40;20743;-71
2021/04/06 00:34:53;;;;;;;16.77;2.38;;;0.00;99.90;;;;;;3558113;40;20049;-70
2021/04/06 00:37:20;;;;;;;10.23;1.58;;;0.00;99.90;;;;;;3564918;40;20041;-70
2021/04/06 00:39:47;;;;;;;7.72;1.45;;;0.00;99.90;;;;;;3563105;40;20040;-70
2021/04/06 00:42:20;;;;;;;7.07;2.05;;;0.00;99.90;;;;;;3560230;40;20048;-70
2021/04/06 00:44:53;;;;;;;9.65;2.10;;;0.00;99.90;;;;;;3558582;40;20435;-70
2021/04/06 00:47:28;;;;;;;11.98;2.88;;;0.00;99.90;;;;;;3561263;40;20072;-70
2021/04/06 00:49:57;;;;;;;8.63;1.90;;;0.00;99.90;;;;;;3564870;40;20037;-70
2021/04/06 00:52:26;;;;;;;5.72;1.80;;;0.00;99.90;;;;;;3557247;40;20037;-71
2021/04/06 00:54:53;;;;;;;9.15;2.10;;;-0.10;99.90;;;;;;3560197;40;20063;-71
2021/04/06 00:57:24;;;;;;;11.43;2.00;;;-0.10;99.90;;;;;;3563695;40;20106;-70
2021/04/06 01:00:18;;;;;;;12.57;2.30;;;-0.10;99.90;;;;;;3564693;40;20037;-70
2021/04/06 01:03:06;;;;;;;12.80;2.47;;;-0.10;99.90;;;;;;3564971;40;20041;-70
2021/04/06 01:05:36;;;;;;;8.13;1.98;;;-0.10;99.90;;;;;;3564589;40;20041;-70
2021/04/06 01:08:06;;;;;;;11.68;2.20;;;-0.20;99.90;;;;;;3567641;40;20139;-70
2021/04/06 01:10:33;;;;;;;9.98;2.47;;;-0.20;99.90;;;;;;3566124;40;20041;-71
2021/04/06 01:13:00;;;;;;;9.02;2.50;;;-0.20;99.90;;;;;;3563447;40;20032;-71
2021/04/06 01:15:26;;;;;;;9.32;2.03;;;-0.10;99.90;;;;;;3560709;40;20037;-70
2021/04/06 01:17:53;;;;;;;9.02;2.35;;;-0.10;99.90;;;;;;3559964;40;20026;-71
2021/04/06 01:20:20;;;;;;;9.68;2.28;;;-0.20;99.90;;;;;;3562005;40;20026;-70
2021/04/06 01:22:48;;;;;;;16.13;2.30;;;-0.10;99.90;;;;;;3565448;40;20041;-70
2021/04/06 01:25:30;;;;;;;8.60;2.85;;;-0.10;99.90;;;;;;3565152;40;20033;-71
2021/04/06 01:28:03;;;;;;;8.07;1.95;;;-0.10;99.90;;;;;;3564269;40;20037;-70
2021/04/06 01:30:43;;;;;;;5.75;2.25;;;-0.10;99.90;;;;;;3564610;40;20080;-70
2021/04/06 01:33:11;;;;;;;6.63;1.73;;;-0.10;99.90;;;;;;3558679;40;20039;-70
2021/04/06 01:35:37;;;;;;;5.15;1.70;;;-0.20;99.90;;;;;;3561405;40;20040;-70
2021/04/06 01:38:04;;;;;;;12.10;1.85;;;-0.20;99.90;;;;;;3562599;40;20123;-71
2021/04/06 01:40:30;;;;;;;8.57;2.00;;;-0.10;99.90;;;;;;3564926;40;20041;-71
2021/04/06 01:42:57;;;;;;;11.73;2.13;;;-0.20;99.90;;;;;;3566480;40;20040;-71
2021/04/06 01:45:23;;;;;;;7.75;1.92;;;-0.20;99.90;;;;;;3562948;40;20029;-70
2021/04/06 01:47:49;;;;;;;7.22;2.25;;;-0.20;99.90;;;;;;3563301;40;20127;-71
2021/04/06 01:50:15;;;;;;;10.25;2.53;;;-0.10;99.90;;;;;;3566469;40;20037;-70
2021/04/06 01:52:47;;;;;;;10.23;2.10;;;-0.10;99.90;;;;;;3564834;40;20397;-71
2021/04/06 01:55:17;;;;;;;9.00;2.17;;;-0.20;99.90;;;;;;3561331;40;20430;-70
2021/04/06 01:57:47;;;;;;;12.52;2.95;;;-0.10;99.90;;;;;;3559040;40;20070;-71
2021/04/06 02:03:04;;;;;;;8.68;2.30;;;-0.10;99.90;;;;;;3564371;40;20801;-71
2021/04/06 02:05:30;;;;;;;9.45;2.25;;;-0.20;99.90;;;;;;3567267;40;20074;-70
2021/04/06 02:07:59;;;;;;;6.93;2.17;;;-0.10;99.90;;;;;;3565366;40;20030;-70
2021/04/06 02:10:25;;;;;;;9.13;2.80;;;-0.20;99.90;;;;;;3560627;40;20040;-70
2021/04/06 02:12:51;;;;;;;8.77;2.85;;;-0.20;99.90;;;;;;3560316;40;20041;-70
2021/04/06 02:15:17;;;;;;;9.98;2.70;;;-0.10;99.90;;;;;;3559397;40;20045;-71
2021/04/06 02:17:47;;;;;;;7.82;2.60;;;-0.20;99.90;;;;;;3562393;40;20043;-71
2021/04/06 02:20:23;;;;;;;13.75;2.92;;;-0.10;99.90;;;;;;3564623;40;20397;-70
2021/04/06 02:23:03;;;;;;;13.88;2.70;;;-0.20;99.90;;;;;;3558633;40;20126;-70
2021/04/06 02:25:30;;;;;;;11.48;2.78;;;-0.10;99.90;;;;;;3560234;40;20464;-70
2021/04/06 02:27:57;;;;;;;7.05;2.38;;;-0.20;99.90;;;;;;3564908;40;20040;-70
2021/04/06 02:30:30;;;;;;;6.75;2.67;;;-0.20;99.90;;;;;;3567384;40;20048;-70
2021/04/06 02:33:01;;;;;;;9.48;3.40;;;-0.20;99.90;;;;;;3565760;40;20413;-70
2021/04/06 02:35:26;;;;;;;11.05;3.45;;;-0.20;99.90;;;;;;3561845;40;20644;-71
2021/04/06 02:37:54;;;;;;;5.85;3.25;;;-0.20;99.90;;;;;;3558539;40;20037;-70
2021/04/06 02:40:20;;;;;;;9.68;3.38;;;-0.30;99.90;;;;;;3559028;40;20045;-70
2021/04/06 02:42:49;;;;;;;13.98;3.22;;;-0.30;99.90;;;;;;3562954;40;20037;-70
2021/04/06 02:45:24;;;;;;;9.20;2.90;;;-0.30;99.90;;;;;;3565765;40;20170;-70
2021/04/06 02:48:14;;;;;;;13.52;3.88;;;-0.30;99.90;;;;;;3559855;40;20041;-70
2021/04/06 02:50:42;;;;;;;12.95;3.22;;;-0.30;99.90;;;;;;3561996;40;20073;-70
2021/04/06 02:53:10;;;;;;;7.63;3.22;;;-0.30;99.90;;;;;;3565161;40;20094;-71
2021/04/06 02:55:36;;;;;;;12.93;3.30;;;-0.30;99.90;;;;;;3567185;40;20033;-71
2021/04/06 02:58:16;;;;;;;9.10;3.35;;;-0.30;99.90;;;;;;3564361;40;20531;-71
2021/04/06 03:00:42;;;;;;;9.75;3.30;;;-0.30;99.90;;;;;;3563732;40;20389;-70
2021/04/06 03:03:25;;;;;;;9.38;3.58;;;-0.40;99.90;;;;;;3565412;40;20033;-70
2021/04/06 03:06:01;;;;;;;14.30;3.42;;;-0.40;99.90;;;;;;3565372;40;20162;-71
2021/04/06 03:08:31;;;;;;;9.13;3.05;;;-0.40;99.90;;;;;;3563116;40;20033;-71
2021/04/06 03:10:57;;;;;;;8.18;2.83;;;-0.40;99.90;;;;;;3558500;40;20041;-71
2021/04/06 03:13:26;;;;;;;11.45;3.08;;;-0.40;99.90;;;;;;3559296;40;20148;-71
2021/04/06 03:15:52;;;;;;;14.02;4.00;;;-0.40;99.90;;;;;;3561973;40;20521;-71
2021/04/06 03:18:18;;;;;;;11.07;3.80;;;-0.40;99.90;;;;;;3563706;40;20052;-70
2021/04/06 03:20:44;;;;;;;8.98;3.20;;;-0.40;99.90;;;;;;3566466;40;20285;-70
2021/04/06 03:23:10;;;;;;;10.98;3.50;;;-0.50;99.90;;;;;;3563733;40;20037;-70
2021/04/06 03:25:37;;;;;;;13.25;3.13;;;-0.50;99.90;;;;;;3560883;40;20080;-70
2021/04/06 03:28:07;;;;;;;18.25;3.13;;;-0.60;99.90;;;;;;3558292;40;20041;-70
2021/04/06 03:30:36;;;;;;;10.75;3.10;;;-0.60;99.90;;;;;;3563913;40;20114;-70
2021/04/06 03:33:08;;;;;;;10.27;3.55;;;-0.70;99.90;;;;;;3562712;40;20140;-70
2021/04/06 03:35:37;;;;;;;8.80;3.25;;;-0.70;99.90;;;;;;3564202;40;20666;-70
2021/04/06 03:38:13;;;;;;;11.80;3.60;;;-0.80;99.90;;;;;;3564834;40;20148;-70
2021/04/06 03:40:40;;;;;;;9.98;3.15;;;-0.70;99.90;;;;;;3565295;40;21049;-70
2021/04/06 03:43:11;;;;;;;9.25;3.22;;;-0.80;99.90;;;;;;3566474;40;20049;-70
2021/04/06 03:46:02;;;;;;;9.13;3.28;;;-0.80;99.90;;;;;;3566173;40;20041;-70
2021/04/06 03:48:36;;;;;;;8.95;3.30;;;-0.90;99.90;;;;;;3565192;40;20056;-70
2021/04/06 03:51:04;;;;;;;12.90;3.33;;;-0.90;99.90;;;;;;3570286;40;20511;-71
2021/04/06 03:53:37;;;;;;;8.40;3.65;;;-0.90;99.90;;;;;;3565284;40;20426;-71
2021/04/06 03:56:11;;;;;;;13.95;3.05;;;-0.90;99.90;;;;;;3562885;40;20083;-71
2021/04/06 03:58:41;;;;;;;9.67;3.00;;;-0.90;99.90;;;;;;3565232;40;20069;-71
2021/04/06 04:01:08;;;;;;;17.23;3.30;;;-0.90;99.90;;;;;;3560392;40;20045;-70
2021/04/06 04:03:37;;;;;;;12.95;3.22;;;-1.00;99.90;;;;;;3562720;40;20037;-71
2021/04/06 04:06:03;;;;;;;8.15;3.20;;;-1.00;99.90;;;;;;3568406;40;20695;-71
2021/04/06 04:08:29;;;;;;;7.15;3.30;;;-1.00;99.90;;;;;;3563625;40;20409;-70
2021/04/06 04:10:55;;;;;;;15.73;3.40;;;-1.00;99.90;;;;;;3563103;40;20295;-71
2021/04/06 04:13:21;;;;;;;12.40;4.28;;;-1.10;99.90;;;;;;3565191;40;20131;-70
2021/04/06 04:15:47;;;;;;;14.88;3.47;;;-1.20;99.90;;;;;;3564848;40;20811;-70
2021/04/06 04:18:13;;;;;;;8.70;3.35;;;-1.10;99.90;;;;;;3560193;40;20042;-70
2021/04/06 04:20:39;;;;;;;5.63;3.03;;;-1.10;99.90;;;;;;3563885;40;20674;-70
2021/04/06 04:23:05;;;;;;;13.80;3.88;;;-1.00;99.90;;;;;;3562664;40;20065;-70
2021/04/06 04:25:31;;;;;;;7.25;2.80;;;-1.10;99.90;;;;;;3558330;40;20116;-71
2021/04/06 04:27:56;;;;;;;11.32;3.00;;;-1.10;99.90;;;;;;3567849;40;20037;-71
2021/04/06 04:30:36;;;;;;;13.07;3.22;;;-1.10;99.90;;;;;;3561450;40;20032;-70
2021/04/06 04:33:03;;;;;;;22.52;5.10;;;-1.10;99.90;;;;;;3560612;40;20054;-70
2021/04/06 04:35:29;;;;;;;10.65;3.83;;;-1.00;99.90;;;;;;3562591;40;20029;-71
2021/04/06 04:37:54;;;;;;;9.25;3.40;;;-0.90;99.90;;;;;;3562185;40;20080;-70
2021/04/06 04:40:20;;;;;;;11.93;3.50;;;-0.90;99.90;;;;;;3561233;40;20806;-70
2021/04/06 04:42:48;;;;;;;11.05;3.40;;;-0.90;99.90;;;;;;3555438;40;20772;-71
2021/04/06 04:45:15;;;;;;;10.25;3.50;;;-0.90;99.90;;;;;;3561644;40;20029;-71
2021/04/06 04:47:40;;;;;;;8.00;3.30;;;-0.90;99.90;;;;;;3566846;40;20571;-70
2021/04/06 04:50:07;;;;;;;13.15;4.00;;;-0.80;99.90;;;;;;3563360;40;20061;-70
2021/04/06 04:52:32;;;;;;;10.43;3.33;;;-0.80;99.90;;;;;;3561451;40;20055;-70
2021/04/06 04:54:58;;;;;;;8.82;3.13;;;-0.80;99.90;;;;;;3566022;40;20761;-70
2021/04/06 04:57:24;;;;;;;11.30;3.50;;;-0.90;99.90;;;;;;3559015;40;20037;-70
2021/04/06 04:59:49;;;;;;;9.00;3.80;;;-0.80;99.90;;;;;;3571089;40;20857;-69
2021/04/06 05:02:15;;;;;;;11.38;3.83;;;-0.80;99.90;;;;;;3563821;40;20039;-70
2021/04/06 05:04:41;;;;;;;15.52;3.70;;;-0.70;99.90;;;;;;3561269;40;20401;-70
2021/04/06 05:07:06;;;;;;;20.92;5.75;;;-0.70;99.90;;;;;;3565103;40;20107;-70
2021/04/06 05:09:32;;;;;;;10.93;3.83;;;-0.70;99.90;;;;;;3567780;40;20040;-70
2021/04/06 05:11:58;;;;;;;19.45;4.28;;;-0.70;99.90;;;;;;3564683;40;20041;-70
2021/04/06 05:14:24;;;;;;;10.20;4.28;;;-0.60;99.90;;;;;;3564995;40;20066;-70
2021/04/06 05:16:50;;;;;;;13.40;4.00;;;-0.60;99.90;;;;;;3568341;40;20037;-70
2021/04/06 05:19:15;;;;;;;16.27;3.97;;;-0.60;99.90;;;;;;3566263;40;20050;-70
2021/04/06 05:21:41;;;;;;;8.27;3.63;;;-0.50;99.90;;;;;;3563567;40;20037;-70
2021/04/06 05:24:07;;;;;;;10.48;3.70;;;-0.60;99.90;;;;;;3560661;40;20100;-70
2021/04/06 05:26:33;;;;;;;15.18;4.20;;;-0.50;99.90;;;;;;3566171;40;20144;-70
2021/04/06 05:28:59;;;;;;;12.80;4.28;;;-0.50;99.90;;;;;;3568025;40;20056;-70
2021/04/06 05:31:24;;;;;;;14.75;4.13;;;-0.40;99.90;;;;;;3568267;40;20102;-70
2021/04/06 05:33:54;;;;;;;12.43;3.97;;;-0.40;99.90;;;;;;3567684;40;20105;-71
2021/04/06 05:36:20;;;;;;;12.73;4.15;;;-0.40;99.90;;;;;;3562630;40;20771;-71
2021/04/06 05:38:45;;;;;;;10.70;4.05;;;-0.30;99.90;;;;;;3569489;40;20048;-72
2021/04/06 05:41:13;;;;;;;9.15;4.10;;;-0.30;99.90;;;;;;3568546;40;20093;-71
2021/04/06 05:43:40;;;;;;;13.35;5.05;;;-0.30;99.90;;;;;;3567811;40;20303;-70
2021/04/06 05:46:09;;;;;;;15.35;4.13;;;-0.20;99.90;;;;;;3565421;40;20053;-70
2021/04/06 05:48:36;;;;;;;35.28;13.18;;;-0.10;99.90;;;;;;3568204;40;20041;-71
2021/04/06 05:51:03;;;;;;;32.97;12.98;;;-0.10;99.90;;;;;;3566621;40;20499;-70
2021/04/06 05:53:29;;;;;;;25.88;13.18;;;0.00;99.90;;;;;;3565098;40;20045;-70
2021/04/06 05:55:59;;;;;;;13.88;7.55;;;0.10;99.90;;;;;;3569458;40;20268;-69
2021/04/06 05:58:26;;;;;;;16.20;7.25;;;0.10;99.90;;;;;;3563428;40;20660;-70
2021/04/06 06:00:52;;;;;;;11.88;5.45;;;0.10;99.90;;;;;;3565550;40;20036;-70
2021/04/06 06:03:18;;;;;;;15.38;5.75;;;0.20;99.90;;;;;;3568480;40;20040;-70
2021/04/06 06:05:43;;;;;;;13.85;6.18;;;0.20;99.90;;;;;;3568230;40;20033;-70
2021/04/06 06:08:14;;;;;;;15.50;7.78;;;0.20;99.90;;;;;;3569017;40;20040;-70
2021/04/06 06:10:40;;;;;;;7.88;4.15;;;0.30;99.90;;;;;;3560351;40;20060;-70
2021/04/06 06:13:23;;;;;;;19.75;7.38;;;0.40;99.90;;;;;;3561951;40;20089;-70
2021/04/06 06:16:20;;;;;;;11.95;7.53;;;0.60;99.90;;;;;;3563560;40;20048;-70
2021/04/06 06:18:54;;;;;;;11.93;5.75;;;0.70;99.90;;;;;;3564124;40;20056;-70
2021/04/06 06:21:20;;;;;;;10.82;4.05;;;0.70;99.90;;;;;;3562918;40;20135;-70
2021/04/06 06:23:46;;;;;;;13.18;4.93;;;0.80;99.90;;;;;;3570299;40;20097;-70
2021/04/06 06:26:16;;;;;;;16.00;5.68;;;0.90;99.90;;;;;;3564838;40;20022;-70
2021/04/06 06:29:10;;;;;;;8.32;4.22;;;0.90;99.90;;;;;;3566778;40;20902;-71
2021/04/06 06:31:42;;;;;;;7.80;3.78;;;1.00;99.90;;;;;;3564974;40;20096;-70
2021/04/06 06:34:28;;;;;;;22.85;7.72;;;1.10;99.90;;;;;;3569228;40;20509;-70
2021/04/06 06:37:16;;;;;;;14.88;6.00;;;1.30;99.90;;;;;;3567288;40;20493;-70
2021/04/06 06:39:48;;;;;;;98.35;32.60;;;1.30;99.90;;;;;;3560954;40;20041;-70
2021/04/06 06:42:16;;;;;;;52.47;19.83;;;1.20;99.90;;;;;;3566342;40;20120;-70
2021/04/06 06:44:42;;;;;;;16.98;5.28;;;1.20;99.90;;;;;;3563179;40;20055;-70
2021/04/06 06:47:28;;;;;;;12.52;6.80;;;1.40;99.90;;;;;;3569835;40;20081;-70
2021/04/06 06:50:05;;;;;;;10.73;4.00;;;1.50;99.90;;;;;;3566317;40;20045;-69
2021/04/06 06:52:32;;;;;;;12.43;3.90;;;1.60;99.90;;;;;;3566237;40;20085;-70
2021/04/06 06:55:02;;;;;;;14.85;6.43;;;1.60;99.90;;;;;;3567958;40;20048;-70
2021/04/06 06:57:34;;;;;;;18.77;7.45;;;1.70;99.90;;;;;;3568955;40;20167;-70
2021/04/06 07:00:20;;;;;;;32.53;12.13;;;1.80;99.90;;;;;;3565412;40;20041;-70
2021/04/06 07:02:46;;;;;;;13.52;4.75;;;2.10;99.90;;;;;;3565000;40;20044;-70
2021/04/06 07:05:16;;;;;;;12.82;4.82;;;2.40;99.90;;;;;;3566888;40;20049;-69
2021/04/06 07:08:02;;;;;;;32.50;9.10;;;2.50;99.90;;;;;;3571273;40;20025;-69
2021/04/06 07:10:31;;;;;;;;;;;2.50;99.90;;;;;;3560044;40;20049;-70
2021/04/06 07:13:06;;;;;;;13.10;3.85;;;2.60;99.90;;;;;;3562861;40;20364;-70
2021/04/06 07:15:34;;;;;;;8.55;3.45;;;2.80;99.90;;;;;;3566946;40;20041;-70
2021/04/06 07:18:08;;;;;;;9.45;3.45;;;2.80;99.90;;;;;;3570807;40;20037;-70
2021/04/06 07:20:39;;;;;;;14.65;4.03;;;2.60;99.90;;;;;;3565244;40;20605;-70
2021/04/06 07:23:11;;;;;;;8.68;4.20;;;2.50;99.90;;;;;;3567586;40;20055;-70
2021/04/06 07:25:37;;;;;;;9.88;3.83;;;2.60;99.90;;;;;;3567557;40;20045;-70
2021/04/06 07:28:04;;;;;;;9.40;3.83;;;2.80;99.90;;;;;;3566322;40;20513;-70
2021/04/06 07:30:30;;;;;;;12.23;4.43;;;3.10;99.90;;;;;;3565625;40;20033;-70
2021/04/06 07:32:58;;;;;;;12.43;4.32;;;2.90;99.90;;;;;;3563324;40;20068;-70
2021/04/06 07:35:25;;;;;;;8.88;4.25;;;2.80;99.90;;;;;;3565005;40;20065;-62
2021/04/06 07:37:50;;;;;;;8.40;4.47;;;3.00;99.90;;;;;;3567468;40;20440;-62
2021/04/06 07:40:19;;;;;;;10.73;4.80;;;3.10;99.90;;;;;;3567176;40;20041;-63
2021/04/06 07:42:46;;;;;;;9.65;4.95;;;3.20;99.90;;;;;;3565910;40;20041;-62
2021/04/06 07:45:21;;;;;;;12.40;8.25;;;3.10;99.90;;;;;;3558270;40;20092;-62
2021/04/06 07:47:47;;;;;;;;;;;3.00;99.90;;;;;;3566613;40;20699;-62
2021/04/06 07:50:14;;;;;;;15.98;6.53;;;3.00;99.90;;;;;;3564481;40;19940;-62
2021/04/06 07:52:40;;;;;;;13.88;6.15;;;3.10;99.90;;;;;;3564891;40;20057;-62
2021/04/06 07:55:07;;;;;;;11.65;4.13;;;3.00;99.90;;;;;;3562307;40;20540;-61
2021/04/06 07:57:44;;;;;;;11.05;5.70;;;2.90;99.90;;;;;;3565324;40;20400;-62
2021/04/06 08:00:11;;;;;;;13.25;4.80;;;2.60;99.90;;;;;;3565361;40;20088;-62
2021/04/06 08:02:44;;;;;;;14.38;5.15;;;2.80;99.90;;;;;;3560693;40;20122;-63
2021/04/06 08:05:18;;;;;;;17.38;6.13;;;2.90;99.90;;;;;;3563276;40;20036;-62
2021/04/06 08:07:44;;;;;;;14.20;6.20;;;3.10;99.90;;;;;;3564859;40;20037;-62
2021/04/06 08:10:09;;;;;;;12.52;4.85;;;3.30;99.90;;;;;;3561998;40;20032;-62
2021/04/06 08:12:36;;;;;;;10.73;5.28;;;3.40;99.90;;;;;;3563287;40;20045;-63
2021/04/06 08:15:11;;;;;;;13.25;5.32;;;3.50;99.90;;;;;;3567705;40;20041;-61
2021/04/06 08:17:44;;;;;;;12.38;5.50;;;3.70;99.90;;;;;;3566909;40;20061;-64
2021/04/06 08:20:21;;;;;;;12.60;5.28;;;3.90;99.90;;;;;;3565694;40;20069;-64
2021/04/06 08:23:02;;;;;;;8.02;4.90;;;3.80;99.90;;;;;;3567430;40;20137;-62
2021/04/06 08:25:30;;;;;;;14.65;5.13;;;3.60;99.90;;;;;;3562537;40;20057;-62
2021/04/06 08:27:59;;;;;;;12.85;5.10;;;3.50;99.90;;;;;;3561094;40;20061;-62
2021/04/06 08:30:33;;;;;;;14.23;5.18;;;3.40;99.90;;;;;;3564107;40;20059;-62
2021/04/06 08:35:43;;;;;;;27.02;9.57;;;3.40;99.90;;;;;;3564467;40;20103;-62
2021/04/06 08:38:31;;;;;;;27.08;9.20;;;3.50;99.90;;;;;;3565185;40;20815;-62
2021/04/06 08:41:10;;;;;;;11.15;4.35;;;3.60;99.90;;;;;;3566026;40;20038;-62
2021/04/06 08:43:47;;;;;;;15.43;4.25;;;3.70;99.90;;;;;;3564689;40;20713;-71
2021/04/06 08:46:33;;;;;;;14.00;7.18;;;3.90;99.90;;;;;;3564046;40;20079;-71
2021/04/06 08:48:59;;;;;;;11.73;4.72;;;4.00;99.90;;;;;;3565947;40;20648;-70
2021/04/06 08:51:59;;;;;;;9.60;4.45;;;3.90;99.90;;;;;;3566916;40;20045;-71
2021/04/06 08:54:30;;;;;;;13.05;4.90;;;4.00;99.90;;;;;;3566972;40;20303;-70
2021/04/06 08:57:01;;;;;;;13.02;5.10;;;4.10;99.90;;;;;;3567147;40;20045;-71
2021/04/06 08:59:37;;;;;;;18.13;4.95;;;4.00;99.90;;;;;;3567764;40;20326;-71
2021/04/06 09:02:18;;;;;;;16.45;4.03;;;4.10;99.90;;;;;;3568081;40;20072;-70
2021/04/06 09:04:51;;;;;;;23.08;4.78;;;4.10;99.90;;;;;;3567176;40;20042;-70
2021/04/06 09:07:20;;;;;;;16.60;5.25;;;4.00;99.90;;;;;;3562122;40;20037;-70
2021/04/06 09:09:50;;;;;;;16.88;4.43;;;4.00;99.90;;;;;;3566020;40;20041;-70
2021/04/06 09:12:16;;;;;;;15.65;3.80;;;4.30;99.90;;;;;;3563992;40;20419;-70
2021/04/06 09:14:42;;;;;;;12.98;4.25;;;4.50;99.90;;;;;;3568295;40;20029;-70
2021/04/06 09:17:08;;;;;;;13.80;3.90;;;4.60;99.90;;;;;;3563536;40;20045;-70
2021/04/06 09:19:36;;;;;;;16.67;4.20;;;4.60;99.90;;;;;;3564878;40;20774;-70
2021/04/06 09:22:05;;;;;;;12.63;4.80;;;4.50;99.90;;;;;;3566602;40;20033;-70
2021/04/06 09:24:31;;;;;;;16.38;4.75;;;4.50;99.90;;;;;;3567163;40;20044;-70
2021/04/06 09:26:58;;;;;;;19.27;4.60;;;4.70;99.90;;;;;;3567148;40;20037;-70
2021/04/06 09:29:27;;;;;;;21.20;6.95;;;4.80;99.90;;;;;;3569040;40;20044;-69
2021/04/06 09:31:58;;;;;;;16.67;6.05;;;5.00;99.90;;;;;;3569685;40;20088;-70
2021/04/06 09:34:27;;;;;;;21.33;6.30;;;5.50;99.90;;;;;;3574842;40;20037;-69
2021/04/06 09:37:01;;;;;;;16.38;4.90;;;5.90;99.90;;;;;;3566755;40;20394;-71
2021/04/06 09:39:29;;;;;;;13.30;5.05;;;5.90;99.90;;;;;;3564519;40;20716;-70
2021/04/06 09:41:56;;;;;;;15.18;5.07;;;5.90;99.90;;;;;;3567124;40;20702;-70
2021/04/06 09:44:27;;;;;;;15.63;4.07;;;6.10;99.90;;;;;;3560726;40;20120;-70
2021/04/06 09:46:58;;;;;;;12.52;3.45;;;6.20;99.90;;;;;;3567053;40;20051;-71
2021/04/06 09:49:33;;;;;;;16.58;4.82;;;6.20;99.90;;;;;;3565877;40;20052;-70
2021/04/06 09:52:02;;;;;;;10.75;3.70;;;5.90;99.90;;;;;;3570680;40;20078;-70
2021/04/06 09:54:34;;;;;;;10.93;3.17;;;5.80;99.90;;;;;;3571264;40;20138;-70
2021/04/06 09:57:03;;;;;;;10.85;3.60;;;5.80;99.90;;;;;;3565316;40;20700;-70
2021/04/06 09:59:29;;;;;;;12.57;4.55;;;6.00;99.90;;;;;;3568058;40;20042;-70
2021/04/06 10:01:58;;;;;;;17.77;4.63;;;6.40;99.90;;;;;;3567675;40;20073;-70
2021/04/06 10:04:39;;;;;;;14.40;3.72;;;6.90;99.90;;;;;;3565968;40;20139;-70
2021/04/06 10:07:24;;;;;;;13.80;4.60;;;6.90;99.40;;;;;;3567956;40;20055;-70
2021/04/06 10:09:54;;;;;;;10.73;3.92;;;6.80;99.60;;;;;;3566593;40;20033;-70
2021/04/06 10:12:22;;;;;;;12.90;3.20;;;7.00;99.90;;;;;;3569557;40;20043;-70
2021/04/06 10:14:49;;;;;;;16.35;4.40;;;6.70;99.60;;;;;;3566564;40;20329;-69
2021/04/06 10:17:18;;;;;;;17.50;4.28;;;6.20;99.90;;;;;;3571566;40;20039;-70
2021/04/06 10:20:10;;;;;;;9.05;3.60;;;6.30;99.90;;;;;;3565328;40;20041;-70
2021/04/06 10:22:52;;;;;;;20.55;7.78;;;6.30;99.90;;;;;;3570789;40;20081;-70
2021/04/06 10:25:25;;;;;;;9.77;2.35;;;6.50;99.90;;;;;;3563329;40;20038;-70
2021/04/06 10:27:58;;;;;;;8.98;2.90;;;6.90;98.50;;;;;;3569061;40;20100;-69
2021/04/06 10:30:39;;;;;;;13.95;3.85;;;6.50;98.60;;;;;;3567292;40;20041;-70
2021/04/06 10:33:09;;;;;;;7.60;2.75;;;6.20;99.40;;;;;;3565653;40;20069;-69
2021/04/06 10:35:38;;;;;;;13.15;4.95;;;6.10;98.90;;;;;;3567012;40;20719;-70
2021/04/06 10:38:05;;;;;;;11.18;3.28;;;6.20;99.60;;;;;;3568656;40;20036;-69
2021/04/06 10:40:41;;;;;;;15.13;3.60;;;6.70;98.80;;;;;;3564804;40;20113;-69
2021/04/06 10:43:12;;;;;;;7.78;2.35;;;7.80;98.10;;;;;;3568033;40;20674;-70
2021/04/06 10:45:50;;;;;;;10.13;3.50;;;8.50;94.70;;;;;;3567682;40;20891;-69
2021/04/06 10:48:23;;;;;;;9.63;2.53;;;8.60;91.50;;;;;;3567528;40;20045;-70
2021/04/06 10:50:52;;;;;;;9.25;2.60;;;8.10;91.30;;;;;;3562827;40;20034;-69
2021/04/06 10:53:20;;;;;;;9.95;1.90;;;7.50;92.30;;;;;;3558459;40;20029;-69
2021/04/06 10:55:52;;;;;;;11.63;2.45;;;7.00;92.90;;;;;;3562582;40;20032;-69
2021/04/06 10:58:27;;;;;;;15.70;2.83;;;6.60;96.40;;;;;;3566403;40;20764;-70
2021/04/06 11:01:03;;;;;;;8.45;2.50;;;6.20;98.70;;;;;;3566224;40;20032;-70
2021/04/06 11:03:49;;;;;;;15.98;2.38;;;6.00;99.20;;;;;;3555230;40;20115;-71
2021/04/06 11:06:26;;;;;;;8.13;2.15;;;5.80;99.50;;;;;;3565278;40;20314;-70
2021/04/06 11:08:53;;;;;;;8.43;2.30;;;5.80;99.90;;;;;;3567222;40;20030;-70
2021/04/06 11:11:25;;;;;;;8.77;2.78;;;6.10;99.90;;;;;;3563094;40;20138;-69
2021/04/06 11:13:52;;;;;;;17.77;3.13;;;6.90;98.70;;;;;;3564038;40;20025;-69
2021/04/06 11:16:18;;;;;;;12.50;2.13;;;7.20;95.30;;;;;;3568440;40;20615;-69
2021/04/06 11:18:56;;;;;;;11.15;2.20;;;6.80;96.50;;;;;;3569214;40;20116;-70
2021/04/06 11:21:21;;;;;;;7.45;2.30;;;6.50;96.30;;;;;;3568882;40;20091;-71
2021/04/06 11:23:47;;;;;;;11.20;2.63;;;5.60;99.90;;;;;;3567207;40;20284;-69
2021/04/06 11:26:14;;;;;;;24.48;5.43;;;4.30;99.90;;;;;;3569810;40;20104;-63
2021/04/06 11:28:40;;;;;;;10.57;3.20;;;3.70;99.90;;;;;;3566039;40;20059;-63
2021/04/06 11:31:06;;;;;;;6.65;1.63;;;3.70;99.90;;;;;;3560772;40;20728;-62
2021/04/06 11:33:32;;;;;;;4.15;1.35;;;4.00;99.90;;;;;;3560838;40;20104;-62
2021/04/06 11:35:57;;;;;;;4.55;1.25;;;4.90;99.60;;;;;;3560667;40;20070;-62
2021/04/06 11:38:23;;;;;;;5.93;1.55;;;5.80;99.40;;;;;;3564016;40;20311;-62
2021/04/06 11:40:49;;;;;;;7.97;2.50;;;6.20;97.40;;;;;;3565246;40;20131;-62
2021/04/06 11:43:14;;;;;;;7.93;1.73;;;6.30;96.70;;;;;;3564219;40;20056;-62
2021/04/06 11:45:40;;;;;;;7.10;2.00;;;6.50;97.10;;;;;;3562055;40;20111;-62
2021/04/06 11:48:06;;;;;;;9.50;1.85;;;6.30;96.50;;;;;;3570975;40;20033;-63
2021/04/06 11:50:32;;;;;;;6.97;2.40;;;6.30;96.20;;;;;;3562550;40;20061;-63
2021/04/06 11:52:58;;;;;;;12.00;2.03;;;7.10;96.10;;;;;;3564346;40;20662;-63
2021/04/06 11:55:24;;;;;;;9.70;1.70;;;8.40;92.60;;;;;;3566958;40;20048;-63
2021/04/06 11:57:50;;;;;;;5.85;1.95;;;9.70;84.80;;;;;;3565708;40;20041;-63
2021/04/06 12:00:17;;;;;;;5.07;1.70;;;10.50;78.00;;;;;;3565044;40;20061;-63
2021/04/06 12:02:42;;;;;;;12.77;2.15;;;10.60;67.40;;;;;;3563707;40;20037;-64
2021/04/06 12:05:09;;;;;;;9.43;1.83;;;10.20;64.70;;;;;;3561989;40;20134;-63
2021/04/06 12:07:34;;;;;;;10.27;2.42;;;10.40;66.30;;;;;;3566384;40;20488;-63
2021/04/06 12:10:01;;;;;;;17.83;7.30;;;10.00;64.90;;;;;;3562363;40;20030;-63
2021/04/06 12:12:27;;;;;;;9.38;1.92;;;9.10;67.50;;;;;;3569632;40;20040;-63
2021/04/06 12:14:54;;;;;;;9.13;1.52;;;8.10;68.00;;;;;;3571465;40;20035;-63
2021/04/06 12:17:20;;;;;;;10.93;1.90;;;7.50;73.70;;;;;;3562807;40;20033;-62
2021/04/06 12:19:45;;;;;;;11.65;3.38;;;6.60;95.60;;;;;;3563985;40;20133;-62
2021/04/06 12:22:11;;;;;;;4.70;1.38;;;5.20;99.90;;;;;;3565690;40;20725;-62
2021/04/06 12:24:37;;;;;;;24.13;21.10;;;4.60;99.90;;;;;;3564296;40;20048;-62
2021/04/06 12:27:04;;;;;;;5.80;3.20;;;5.20;99.90;;;;;;3567104;40;20037;-63
2021/04/06 12:29:29;;;;;;;9.80;4.68;;;6.70;99.80;;;;;;3569288;40;20032;-63
2021/04/06 12:31:55;;;;;;;9.73;1.20;;;8.40;98.10;;;;;;3564252;40;20029;-63
2021/04/06 12:34:21;;;;;;;6.90;1.95;;;9.60;92.00;;;;;;3562707;40;20643;-63
2021/04/06 12:36:46;;;;;;;11.18;1.95;;;9.60;83.50;;;;;;3567037;40;20092;-62
2021/04/06 12:39:12;;;;;;;8.27;1.75;;;8.50;85.40;;;;;;3563476;40;20122;-63
2021/04/06 12:41:38;;;;;;;10.02;1.60;;;7.60;93.00;;;;;;3564163;40;20033;-62
2021/04/06 12:44:04;;;;;;;7.35;1.50;;;6.90;96.40;;;;;;3563464;40;20052;-63
2021/04/06 12:46:30;;;;;;;7.93;2.03;;;7.40;95.00;;;;;;3559589;40;20206;-63
2021/04/06 12:48:55;;;;;;;9.60;1.95;;;7.80;93.20;;;;;;3564495;40;20037;-62
2021/04/06 12:51:21;;;;;;;11.65;1.65;;;7.70;92.10;;;;;;3564239;40;20837;-63
2021/04/06 12:53:47;;;;;;;8.55;2.67;;;7.50;91.00;;;;;;3566922;40;20483;-63
2021/04/06 12:56:13;;;;;;;10.20;2.03;;;7.50;90.20;;;;;;3568198;40;20037;-63
2021/04/06 12:58:39;;;;;;;11.02;1.88;;;7.50;90.20;;;;;;3566564;40;20055;-63
2021/04/06 13:01:04;;;;;;;7.03;1.52;;;7.30;87.60;;;;;;3570764;40;20037;-63
2021/04/06 13:03:30;;;;;;;8.60;1.30;;;6.70;93.00;;;;;;3567360;40;20036;-62
2021/04/06 13:05:55;;;;;;;11.18;1.92;;;6.10;97.00;;;;;;3567092;40;20045;-63
2021/04/06 13:08:21;;;;;;;6.53;1.50;;;6.40;99.90;;;;;;3564019;40;20037;-63